createdAt,value
2019-05-01T00:04:58.228Z,9.63
2019-05-01T00:07:33.087Z,8.23
2019-05-01T00:13:00.139Z,9.47
2019-05-01T00:16:09.255Z,9.47
2019-05-01T00:18:39.407Z,10.03
2019-05-01T00:24:13.813Z,9.77
2019-05-01T00:29:18.390Z,11.00
2019-05-01T00:31:48.128Z,9.40
2019-05-01T00:34:17.668Z,9.80
2019-05-01T00:36:47.314Z,9.07
2019-05-01T00:41:53.304Z,9.10
2019-05-01T00:44:23.142Z,9.60
2019-05-01T00:46:52.542Z,10.43
2019-05-01T00:49:21.932Z,9.60
2019-05-01T00:57:43.770Z,9.70
2019-05-01T01:00:42.521Z,9.37
2019-05-01T01:08:36.468Z,9.23
2019-05-01T01:13:54.351Z,9.43
2019-05-01T01:16:23.704Z,10.13
2019-05-01T01:18:54.046Z,10.07
2019-05-01T01:26:54.101Z,11.07
2019-05-01T01:32:14.092Z,13.30
2019-05-01T01:34:44.017Z,12.40
2019-05-01T01:37:13.389Z,14.30
2019-05-01T01:40:22.043Z,13.30
2019-05-01T01:48:28.193Z,15.53
2019-05-01T01:53:55.716Z,14.60
2019-05-01T01:56:25.186Z,16.03
2019-05-01T01:59:33.827Z,15.00
2019-05-01T02:02:22.060Z,15.43
2019-05-01T02:05:10.326Z,14.87
2019-05-01T02:07:39.977Z,14.85
2019-05-01T02:13:18.384Z,14.40
2019-05-01T02:15:47.715Z,15.47
2019-05-01T02:18:17.087Z,14.57
2019-05-01T02:20:46.543Z,14.03
2019-05-01T02:23:15.922Z,12.30
2019-05-01T02:25:45.315Z,12.90
2019-05-01T02:28:53.981Z,11.90
2019-05-01T02:34:45.333Z,11.30
2019-05-01T02:37:54.223Z,11.13
2019-05-01T02:40:51.263Z,12.90
2019-05-01T02:43:59.853Z,11.40
2019-05-01T02:47:08.530Z,12.27
2019-05-01T02:53:04.511Z,12.90
2019-05-01T02:58:28.232Z,14.37
2019-05-01T03:09:58.581Z,13.20
2019-05-01T03:21:41.444Z,12.10
2019-05-01T03:27:30.983Z,12.40
2019-05-01T03:30:00.357Z,12.20
2019-05-01T03:38:19.762Z,12.87
2019-05-01T03:46:58.990Z,13.97
2019-05-01T03:49:28.494Z,13.17
2019-05-01T03:55:06.625Z,13.83
2019-05-01T03:57:35.950Z,13.97
2019-05-01T04:00:45.058Z,13.23
2019-05-01T04:06:34.358Z,13.53
2019-05-01T04:23:35.276Z,13.93
2019-05-01T04:26:04.748Z,14.33
2019-05-01T04:32:01.660Z,12.17
2019-05-01T04:37:46.886Z,11.53
2019-05-01T04:40:18.777Z,11.03
2019-05-01T04:42:47.599Z,10.57
2019-05-01T04:45:35.962Z,11.07
2019-05-01T04:51:19.753Z,11.27
2019-05-01T04:53:49.111Z,11.17
2019-05-01T04:56:18.553Z,13.07
2019-05-01T04:59:06.921Z,12.67
2019-05-01T05:01:57.256Z,11.93
2019-05-01T05:07:21.853Z,11.63
2019-05-01T05:13:18.801Z,11.50
2019-05-01T05:19:02.551Z,11.87
2019-05-01T05:21:51.171Z,12.03
2019-05-01T05:30:41.701Z,12.03
2019-05-01T05:36:37.146Z,12.23
2019-05-01T05:45:15.081Z,11.77
2019-05-01T05:47:56.379Z,11.23
2019-05-01T06:02:55.142Z,11.17
2019-05-01T06:06:03.992Z,10.60
2019-05-01T06:08:53.768Z,10.30
2019-05-01T06:17:36.582Z,10.33
2019-05-01T06:20:27.504Z,10.70
2019-05-01T06:23:36.263Z,10.53
2019-05-01T06:26:25.080Z,11.30
2019-05-01T06:28:55.983Z,10.23
2019-05-01T06:37:06.739Z,11.37
2019-05-01T06:39:36.168Z,11.20
2019-05-01T06:45:04.798Z,12.60
2019-05-01T06:47:53.046Z,12.30
2019-05-01T06:50:42.718Z,13.37
2019-05-01T06:53:12.463Z,14.33
2019-05-01T06:55:41.999Z,14.87
2019-05-01T07:01:23.858Z,11.50
2019-05-01T07:04:03.415Z,11.07
2019-05-01T07:09:11.782Z,10.50
2019-05-01T07:14:55.631Z,11.23
2019-05-01T07:17:24.934Z,10.17
2019-05-01T07:20:16.774Z,9.67
2019-05-01T07:22:44.685Z,9.73
2019-05-01T07:25:53.335Z,10.00
2019-05-01T07:29:06.000Z,10.43
2019-05-01T07:31:33.065Z,9.77
2019-05-01T07:34:02.726Z,9.30
2019-05-01T07:36:32.041Z,8.50
2019-05-01T07:42:35.737Z,8.70
2019-05-01T08:03:26.984Z,9.20
2019-05-01T08:05:56.362Z,8.43
2019-05-01T08:08:25.680Z,8.67
2019-05-01T08:10:55.025Z,7.87
2019-05-01T08:13:24.370Z,9.10
2019-05-01T08:15:53.721Z,9.03
2019-05-01T08:21:14.818Z,9.33
2019-05-01T08:23:47.120Z,9.43
2019-05-01T08:29:09.436Z,9.00
2019-05-01T08:31:58.856Z,9.23
2019-05-01T08:37:22.536Z,8.93
2019-05-01T08:39:50.173Z,9.00
2019-05-01T08:42:19.716Z,9.03
2019-05-01T08:50:24.688Z,9.30
2019-05-01T08:52:52.675Z,8.40
2019-05-01T08:55:21.987Z,9.67
2019-05-01T08:57:51.307Z,8.83
2019-05-01T09:00:59.922Z,8.93
2019-05-01T09:03:29.262Z,9.50
2019-05-01T09:05:59.065Z,8.40
2019-05-01T09:08:32.140Z,9.07
2019-05-01T09:11:02.263Z,8.57
2019-05-01T09:13:31.975Z,9.70
2019-05-01T09:16:01.307Z,9.27
2019-05-01T09:18:30.703Z,9.00
2019-05-01T09:21:00.090Z,9.60
2019-05-01T09:23:29.454Z,9.57
2019-05-01T09:26:18.103Z,9.10
2019-05-01T09:28:53.109Z,9.67
2019-05-01T09:34:03.466Z,9.30
2019-05-01T09:36:32.974Z,9.07
2019-05-01T09:39:02.407Z,8.93
2019-05-01T09:41:38.026Z,9.50
2019-05-01T09:44:05.844Z,8.67
2019-05-01T09:46:33.932Z,8.87
2019-05-01T09:49:03.288Z,9.67
2019-05-01T09:51:51.813Z,9.30
2019-05-01T09:54:42.965Z,9.53
2019-05-01T09:57:11.123Z,8.80
2019-05-01T09:59:40.483Z,9.07
2019-05-01T10:02:28.823Z,9.17
2019-05-01T10:05:02.028Z,8.97
2019-05-01T10:10:17.559Z,9.40
2019-05-01T10:12:48.445Z,10.50
2019-05-01T10:15:18.222Z,10.97
2019-05-01T10:17:47.578Z,10.27
2019-05-01T10:20:16.888Z,10.10
2019-05-01T10:22:46.222Z,10.07
2019-05-01T10:25:15.568Z,10.30
2019-05-01T10:33:23.075Z,9.50
2019-05-01T10:36:17.677Z,9.50
2019-05-01T10:38:45.210Z,10.33
2019-05-01T10:41:13.336Z,10.50
2019-05-01T10:43:42.691Z,9.33
2019-05-01T10:46:11.989Z,10.20
2019-05-01T10:48:41.304Z,10.50
2019-05-01T10:51:10.662Z,9.77
2019-05-01T10:53:43.061Z,10.00
2019-05-01T10:56:11.061Z,9.93
2019-05-01T10:58:40.395Z,10.77
2019-05-01T11:01:28.617Z,9.73
2019-05-01T11:03:58.042Z,10.37
2019-05-01T11:06:27.333Z,10.47
2019-05-01T11:08:56.681Z,9.83
2019-05-01T11:11:26.058Z,10.70
2019-05-01T11:13:55.417Z,9.97
2019-05-01T11:16:24.776Z,9.87
2019-05-01T11:18:54.125Z,10.17
2019-05-01T11:21:23.488Z,10.33
2019-05-01T11:24:11.779Z,9.13
2019-05-01T11:26:41.127Z,10.80
2019-05-01T11:29:29.623Z,10.63
2019-05-01T11:32:17.850Z,10.97
2019-05-01T11:35:06.086Z,10.33
2019-05-01T11:37:54.308Z,11.23
2019-05-01T11:40:42.708Z,10.67
2019-05-01T11:43:12.025Z,10.20
2019-05-01T11:45:41.348Z,11.07
2019-05-01T11:48:10.676Z,10.03
2019-05-01T11:50:40.002Z,11.05
2019-05-01T11:53:09.326Z,10.87
2019-05-01T11:58:26.971Z,11.27
2019-05-01T12:03:46.252Z,10.60
2019-05-01T12:06:22.622Z,10.83
2019-05-01T12:08:57.755Z,11.27
2019-05-01T12:14:17.656Z,10.77
2019-05-01T12:17:05.870Z,11.38
2019-05-01T12:19:35.246Z,10.10
2019-05-01T12:22:04.671Z,10.72
2019-05-01T12:24:34.037Z,10.65
2019-05-01T12:27:03.411Z,11.00
2019-05-01T12:29:32.772Z,10.63
2019-05-01T12:32:02.152Z,10.75
2019-05-01T12:34:33.852Z,10.45
2019-05-01T12:37:22.064Z,9.40
2019-05-01T12:40:22.405Z,10.23
2019-05-01T12:42:55.812Z,10.30
2019-05-01T12:45:25.137Z,10.60
2019-05-01T12:48:13.870Z,9.87
2019-05-01T12:51:02.137Z,9.35
2019-05-01T12:53:50.407Z,9.45
2019-05-01T12:59:01.523Z,9.63
2019-05-01T13:01:30.875Z,9.85
2019-05-01T13:04:00.318Z,10.65
2019-05-01T13:06:30.003Z,9.58
2019-05-01T13:08:59.792Z,8.95
2019-05-01T13:11:29.163Z,7.70
2019-05-01T13:14:17.411Z,7.45
2019-05-01T13:16:46.764Z,7.50
2019-05-01T13:19:16.143Z,7.37
2019-05-01T13:21:45.512Z,7.33
2019-05-01T13:30:16.786Z,7.77
2019-05-01T13:32:47.903Z,7.25
2019-05-01T13:35:17.290Z,7.95
2019-05-01T13:38:05.536Z,8.93
2019-05-01T13:40:34.924Z,7.60
2019-05-01T13:43:04.235Z,7.15
2019-05-01T13:45:33.618Z,6.83
2019-05-01T13:48:02.976Z,6.65
2019-05-01T13:50:32.733Z,6.37
2019-05-01T13:53:02.071Z,6.55
2019-05-01T13:55:31.428Z,7.42
2019-05-01T13:58:00.808Z,7.17
2019-05-01T14:00:30.302Z,6.67
2019-05-01T14:02:59.648Z,7.03
2019-05-01T14:05:29.076Z,6.55
2019-05-01T14:07:58.426Z,6.92
2019-05-01T14:10:27.844Z,7.28
2019-05-01T14:12:57.267Z,6.78
2019-05-01T14:15:26.625Z,7.28
2019-05-01T14:17:55.949Z,6.60
2019-05-01T14:20:44.212Z,7.08
2019-05-01T14:23:40.145Z,7.30
2019-05-01T14:26:09.509Z,7.20
2019-05-01T14:28:38.835Z,7.37
2019-05-01T14:31:27.063Z,7.90
2019-05-01T14:33:56.374Z,8.63
2019-05-01T14:36:25.719Z,9.18
2019-05-01T14:38:55.038Z,9.20
2019-05-01T14:41:24.355Z,9.00
2019-05-01T14:43:53.647Z,8.73
2019-05-01T14:46:22.963Z,8.63
2019-05-01T14:48:52.254Z,9.97
2019-05-01T14:51:21.959Z,9.00
2019-05-01T14:56:25.967Z,8.80
2019-05-01T14:58:55.291Z,8.73
2019-05-01T15:01:24.587Z,9.00
2019-05-01T15:03:53.942Z,8.60
2019-05-01T15:08:57.790Z,8.50
2019-05-01T15:11:27.127Z,9.40
2019-05-01T15:17:09.463Z,8.67
2019-05-01T15:20:06.086Z,9.00
2019-05-01T15:22:35.474Z,7.63
2019-05-01T15:25:05.254Z,7.70
2019-05-01T15:27:53.632Z,7.63
2019-05-01T15:30:22.981Z,7.80
2019-05-01T15:32:52.285Z,7.13
2019-05-01T15:35:21.649Z,6.77
2019-05-01T15:37:56.912Z,7.47
2019-05-01T15:43:45.467Z,6.63
2019-05-01T15:46:14.821Z,6.57
2019-05-01T15:48:44.175Z,6.70
2019-05-01T15:51:32.469Z,7.50
2019-05-01T15:54:01.833Z,7.23
2019-05-01T15:56:31.173Z,6.57
2019-05-01T15:59:00.512Z,6.37
2019-05-01T16:04:18.307Z,6.53
2019-05-01T16:06:47.625Z,5.77
2019-05-01T16:09:56.330Z,6.17
2019-05-01T16:12:44.622Z,5.80
2019-05-01T16:15:33.137Z,6.03
2019-05-01T16:23:27.873Z,5.93
2019-05-01T16:25:57.308Z,5.97
2019-05-01T16:28:26.763Z,6.13
2019-05-01T16:30:56.141Z,6.10
2019-05-01T16:33:25.648Z,5.63
2019-05-01T16:35:55.037Z,5.63
2019-05-01T16:41:08.631Z,5.17
2019-05-01T16:43:37.976Z,5.93
2019-05-01T16:46:46.640Z,5.37
2019-05-01T16:49:16.081Z,5.53
2019-05-01T16:51:45.461Z,5.57
2019-05-01T16:54:14.790Z,5.27
2019-05-01T16:56:44.142Z,6.23
2019-05-01T16:59:13.486Z,5.10
2019-05-01T17:02:01.839Z,5.43
2019-05-01T17:04:50.029Z,5.47
2019-05-01T17:07:38.256Z,5.23
2019-05-01T17:10:26.490Z,5.30
2019-05-01T17:16:15.725Z,4.93
2019-05-01T17:18:45.027Z,5.37
2019-05-01T17:24:02.656Z,4.93
2019-05-01T17:26:32.002Z,4.87
2019-05-01T17:29:01.306Z,4.30
2019-05-01T17:31:30.595Z,4.77
2019-05-01T17:33:59.916Z,4.80
2019-05-01T17:36:29.228Z,4.60
2019-05-01T17:38:58.529Z,5.13
2019-05-01T17:41:28.672Z,5.07
2019-05-01T17:43:58.880Z,9.13
2019-05-01T17:46:28.224Z,4.83
2019-05-01T17:48:57.548Z,5.60
2019-05-01T17:51:26.887Z,5.70
2019-05-01T17:53:56.361Z,4.53
2019-05-01T17:56:28.442Z,4.63
2019-05-01T17:58:56.821Z,4.80
2019-05-01T18:01:45.050Z,4.97
2019-05-01T18:04:35.575Z,5.07
2019-05-01T18:07:05.030Z,4.93
2019-05-01T18:09:34.355Z,4.70
2019-05-01T18:12:03.738Z,5.00
2019-05-01T18:14:33.051Z,5.37
2019-05-01T18:17:02.419Z,4.57
2019-05-01T18:19:31.979Z,4.70
2019-05-01T18:22:20.370Z,4.83
2019-05-01T18:25:08.596Z,4.17
2019-05-01T18:27:56.870Z,4.80
2019-05-01T18:39:17.129Z,5.00
2019-05-01T18:42:06.267Z,5.57
2019-05-01T18:44:35.746Z,4.60
2019-05-01T18:50:19.354Z,5.10
2019-05-01T18:55:42.452Z,4.83
2019-05-01T18:58:11.877Z,5.27
2019-05-01T19:03:31.192Z,5.43
2019-05-01T19:06:00.626Z,5.70
2019-05-01T19:08:29.999Z,6.07
2019-05-01T19:11:11.667Z,5.70
2019-05-01T19:13:30.814Z,5.30
2019-05-01T19:16:03.448Z,5.33
2019-05-01T19:18:52.804Z,6.57
2019-05-01T19:24:00.641Z,5.83
2019-05-01T19:26:29.819Z,5.50
2019-05-01T19:28:59.463Z,5.60
2019-05-01T19:39:13.715Z,6.27
2019-05-01T19:46:52.802Z,5.70
2019-05-01T19:49:24.574Z,5.70
2019-05-01T19:51:55.602Z,6.10
2019-05-01T19:54:35.561Z,5.43
2019-05-01T19:57:04.867Z,5.13
2019-05-01T19:59:37.096Z,6.50
2019-05-01T20:04:45.309Z,5.27
2019-05-01T20:07:15.756Z,5.67
2019-05-01T20:09:56.437Z,5.73
2019-05-01T20:12:16.423Z,6.63
2019-05-01T20:14:45.759Z,6.33
2019-05-01T20:17:15.121Z,6.17
2019-05-01T20:19:44.503Z,6.00
2019-05-01T20:22:16.581Z,6.90
2019-05-01T20:24:45.963Z,6.37
2019-05-01T20:27:15.251Z,6.80
2019-05-01T20:29:44.587Z,6.37
2019-05-01T20:32:13.957Z,6.67
2019-05-01T20:34:43.272Z,5.53
2019-05-01T20:37:12.602Z,6.77
2019-05-01T20:39:41.921Z,5.73
2019-05-01T20:42:11.236Z,5.53
2019-05-01T20:44:40.556Z,6.13
2019-05-01T20:47:09.876Z,6.63
2019-05-01T20:49:41.431Z,6.07
2019-05-01T20:52:10.230Z,6.50
2019-05-01T20:54:39.530Z,7.73
2019-05-01T20:57:27.723Z,6.10
2019-05-01T20:59:59.346Z,6.33
2019-05-01T21:02:47.553Z,6.07
2019-05-01T21:08:34.339Z,5.53
2019-05-01T21:11:06.017Z,5.37
2019-05-01T21:13:35.427Z,5.40
2019-05-01T21:16:04.839Z,5.10
2019-05-01T21:18:34.160Z,4.93
2019-05-01T21:21:03.598Z,4.83
2019-05-01T21:23:33.450Z,6.03
2019-05-01T21:26:04.039Z,5.27
2019-05-01T21:28:34.092Z,5.10
2019-05-01T21:31:04.423Z,6.13
2019-05-01T21:33:53.591Z,5.07
2019-05-01T21:36:23.725Z,4.80
2019-05-01T21:38:53.065Z,4.93
2019-05-01T21:41:22.522Z,5.00
2019-05-01T21:43:52.927Z,5.13
2019-05-01T21:46:22.875Z,4.93
2019-05-01T21:48:53.551Z,4.87
2019-05-01T21:51:23.263Z,5.13
2019-05-01T21:53:53.004Z,5.47
2019-05-01T21:56:23.618Z,5.33
2019-05-01T21:58:54.988Z,5.17
2019-05-01T22:01:24.111Z,5.13
2019-05-01T22:03:57.140Z,5.27
2019-05-01T22:06:24.432Z,5.70
2019-05-01T22:08:53.824Z,5.50
2019-05-01T22:11:23.135Z,5.50
2019-05-01T22:13:55.016Z,5.03
2019-05-01T22:19:20.673Z,5.80
2019-05-01T22:22:08.911Z,5.67
2019-05-01T22:24:57.208Z,6.37
2019-05-01T22:27:45.451Z,4.70
2019-05-01T22:30:33.936Z,5.83
2019-05-01T22:33:13.898Z,5.43
2019-05-01T22:36:02.121Z,5.20
2019-05-01T22:38:31.512Z,5.03
2019-05-01T22:41:19.701Z,5.17
2019-05-01T22:43:49.083Z,5.77
2019-05-01T22:49:11.821Z,4.87
2019-05-01T22:51:41.108Z,6.13
2019-05-01T22:54:10.438Z,5.90
2019-05-01T22:56:39.743Z,5.40
2019-05-01T23:04:39.825Z,4.90
2019-05-01T23:07:11.713Z,5.77
2019-05-01T23:09:40.151Z,5.00
2019-05-01T23:12:09.518Z,6.07
2019-05-01T23:14:38.816Z,4.83
2019-05-01T23:17:27.125Z,5.27
2019-05-01T23:22:44.699Z,5.87
2019-05-01T23:28:08.951Z,5.30
2019-05-01T23:30:38.317Z,5.10
2019-05-01T23:33:07.621Z,5.20
2019-05-01T23:35:36.978Z,5.40
2019-05-01T23:38:06.265Z,5.33
2019-05-01T23:40:35.638Z,4.73
2019-05-01T23:43:04.969Z,4.90
2019-05-01T23:45:34.336Z,5.03
2019-05-01T23:48:03.650Z,4.83
2019-05-01T23:50:32.957Z,4.97
2019-05-01T23:53:02.282Z,4.93
2019-05-01T23:55:31.596Z,5.03
2019-05-01T23:58:00.902Z,4.67
